sensor_id;sensor_type;location;lat;lon;timestamp;temperature;humidity
67603;DHT22;54417;47.454;18.918;2023-05-29T00:02:35;11.00;83.43
67603;DHT22;54417;47.454;18.918;2023-05-29T00:07:43;10.93;84.25
67603;DHT22;54417;47.454;18.918;2023-05-29T00:12:53;10.90;84.17
67603;DHT22;54417;47.454;18.918;2023-05-29T00:18:00;10.94;83.11
67603;DHT22;54417;47.454;18.918;2023-05-29T00:23:10;10.93;83.56
67603;DHT22;54417;47.454;18.918;2023-05-29T00:28:20;10.84;83.31
67603;DHT22;54417;47.454;18.918;2023-05-29T00:33:27;10.90;83.13
67603;DHT22;54417;47.454;18.918;2023-05-29T00:38:34;11.00;83.08
67603;DHT22;54417;47.454;18.918;2023-05-29T00:43:47;11.05;82.60
67603;DHT22;54417;47.454;18.918;2023-05-29T00:48:57;11.07;82.82
67603;DHT22;54417;47.454;18.918;2023-05-29T00:54:06;10.98;82.93
67603;DHT22;54417;47.454;18.918;2023-05-29T00:59:17;10.98;83.11
67603;DHT22;54417;47.454;18.918;2023-05-29T01:04:26;10.97;83.84
67603;DHT22;54417;47.454;18.918;2023-05-29T01:09:38;10.93;84.32
67603;DHT22;54417;47.454;18.918;2023-05-29T01:14:57;10.97;83.96
67603;DHT22;54417;47.454;18.918;2023-05-29T01:20:16;10.98;83.84
67603;DHT22;54417;47.454;18.918;2023-05-29T01:25:35;10.93;83.41
67603;DHT22;54417;47.454;18.918;2023-05-29T01:30:50;10.91;83.19
67603;DHT22;54417;47.454;18.918;2023-05-29T01:41:04;10.68;83.75
67603;DHT22;54417;47.454;18.918;2023-05-29T01:46:15;10.71;83.78
67603;DHT22;54417;47.454;18.918;2023-05-29T01:51:22;10.56;84.36
67603;DHT22;54417;47.454;18.918;2023-05-29T01:56:29;10.50;85.25
67603;DHT22;54417;47.454;18.918;2023-05-29T02:06:50;10.35;86.01
67603;DHT22;54417;47.454;18.918;2023-05-29T02:11:57;10.28;85.89
67603;DHT22;54417;47.454;18.918;2023-05-29T02:17:05;10.20;86.49
67603;DHT22;54417;47.454;18.918;2023-05-29T02:22:16;10.17;85.92
67603;DHT22;54417;47.454;18.918;2023-05-29T02:32:30;10.13;86.81
67603;DHT22;54417;47.454;18.918;2023-05-29T02:37:40;10.13;86.97
67603;DHT22;54417;47.454;18.918;2023-05-29T02:42:51;10.13;87.03
67603;DHT22;54417;47.454;18.918;2023-05-29T02:47:59;10.08;87.57
67603;DHT22;54417;47.454;18.918;2023-05-29T02:58:18;10.09;87.69
67603;DHT22;54417;47.454;18.918;2023-05-29T03:03:25;10.10;87.65
67603;DHT22;54417;47.454;18.918;2023-05-29T03:08:34;10.15;87.98
67603;DHT22;54417;47.454;18.918;2023-05-29T03:13:46;10.25;87.81
67603;DHT22;54417;47.454;18.918;2023-05-29T03:18:53;10.30;87.60
67603;DHT22;54417;47.454;18.918;2023-05-29T03:23:59;10.39;86.80
67603;DHT22;54417;47.454;18.918;2023-05-29T03:29:11;10.57;86.71
67603;DHT22;54417;47.454;18.918;2023-05-29T03:34:19;10.64;86.66
67603;DHT22;54417;47.454;18.918;2023-05-29T03:39:32;10.70;86.28
67603;DHT22;54417;47.454;18.918;2023-05-29T03:44:44;10.87;85.91
67603;DHT22;54417;47.454;18.918;2023-05-29T03:49:51;11.05;85.55
67603;DHT22;54417;47.454;18.918;2023-05-29T03:55:00;11.24;85.41
67603;DHT22;54417;47.454;18.918;2023-05-29T04:00:11;11.52;85.03
67603;DHT22;54417;47.454;18.918;2023-05-29T04:05:23;11.79;85.89
67603;DHT22;54417;47.454;18.918;2023-05-29T04:10:29;11.98;85.61
67603;DHT22;54417;47.454;18.918;2023-05-29T04:15:40;12.49;82.85
67603;DHT22;54417;47.454;18.918;2023-05-29T04:20:47;12.93;82.18
67603;DHT22;54417;47.454;18.918;2023-05-29T04:25:55;13.28;80.67
67603;DHT22;54417;47.454;18.918;2023-05-29T04:31:09;13.79;80.24
67603;DHT22;54417;47.454;18.918;2023-05-29T04:36:25;14.26;79.09
67603;DHT22;54417;47.454;18.918;2023-05-29T04:41:43;14.61;77.54
67603;DHT22;54417;47.454;18.918;2023-05-29T04:46:57;14.91;76.94
67603;DHT22;54417;47.454;18.918;2023-05-29T04:52:07;15.33;76.59
67603;DHT22;54417;47.454;18.918;2023-05-29T04:57:14;15.71;75.53
67603;DHT22;54417;47.454;18.918;2023-05-29T05:02:29;16.14;74.01
67603;DHT22;54417;47.454;18.918;2023-05-29T05:07:36;16.55;74.16
67603;DHT22;54417;47.454;18.918;2023-05-29T05:12:43;16.93;72.98
67603;DHT22;54417;47.454;18.918;2023-05-29T05:17:56;17.38;70.97
67603;DHT22;54417;47.454;18.918;2023-05-29T05:23:05;17.68;71.60
67603;DHT22;54417;47.454;18.918;2023-05-29T05:28:20;18.04;69.66
67603;DHT22;54417;47.454;18.918;2023-05-29T05:33:31;18.31;68.21
67603;DHT22;54417;47.454;18.918;2023-05-29T05:38:39;18.59;68.87
67603;DHT22;54417;47.454;18.918;2023-05-29T05:43:46;18.94;68.80
67603;DHT22;54417;47.454;18.918;2023-05-29T05:54:13;19.89;67.74
67603;DHT22;54417;47.454;18.918;2023-05-29T05:59:20;20.36;64.28
67603;DHT22;54417;47.454;18.918;2023-05-29T06:04:32;20.67;63.99
67603;DHT22;54417;47.454;18.918;2023-05-29T06:09:39;20.97;63.23
67603;DHT22;54417;47.454;18.918;2023-05-29T06:20:18;21.60;60.02
67603;DHT22;54417;47.454;18.918;2023-05-29T06:25:25;22.06;57.13
67603;DHT22;54417;47.454;18.918;2023-05-29T06:30:38;22.21;52.48
67603;DHT22;54417;47.454;18.918;2023-05-29T06:35:59;22.38;53.03
67603;DHT22;54417;47.454;18.918;2023-05-29T06:41:06;22.58;54.56
67603;DHT22;54417;47.454;18.918;2023-05-29T06:46:11;22.65;52.51
67603;DHT22;54417;47.454;18.918;2023-05-29T06:51:21;22.54;52.44
67603;DHT22;54417;47.454;18.918;2023-05-29T06:56:30;23.06;51.91
67603;DHT22;54417;47.454;18.918;2023-05-29T07:01:38;23.28;50.86
67603;DHT22;54417;47.454;18.918;2023-05-29T07:06:48;23.49;50.85
67603;DHT22;54417;47.454;18.918;2023-05-29T07:11:59;23.53;50.57
67603;DHT22;54417;47.454;18.918;2023-05-29T07:17:07;23.49;51.83
67603;DHT22;54417;47.454;18.918;2023-05-29T07:22:16;23.51;51.95
67603;DHT22;54417;47.454;18.918;2023-05-29T07:27:24;23.51;49.94
67603;DHT22;54417;47.454;18.918;2023-05-29T07:32:31;23.40;51.36
67603;DHT22;54417;47.454;18.918;2023-05-29T07:37:41;23.50;51.96
67603;DHT22;54417;47.454;18.918;2023-05-29T07:42:51;23.40;51.96
67603;DHT22;54417;47.454;18.918;2023-05-29T07:47:58;23.46;53.59
67603;DHT22;54417;47.454;18.918;2023-05-29T07:53:09;23.36;52.11
67603;DHT22;54417;47.454;18.918;2023-05-29T08:03:27;24.74;53.13
67603;DHT22;54417;47.454;18.918;2023-05-29T08:09:03;24.84;50.09
67603;DHT22;54417;47.454;18.918;2023-05-29T08:14:12;25.25;52.08
67603;DHT22;54417;47.454;18.918;2023-05-29T08:19:19;25.04;53.43
67603;DHT22;54417;47.454;18.918;2023-05-29T08:29:43;24.74;52.60
67603;DHT22;54417;47.454;18.918;2023-05-29T08:34:50;24.49;51.78
67603;DHT22;54417;47.454;18.918;2023-05-29T08:39:57;24.33;52.71
67603;DHT22;54417;47.454;18.918;2023-05-29T08:45:11;24.35;53.07
67603;DHT22;54417;47.454;18.918;2023-05-29T08:55:26;24.50;54.42
67603;DHT22;54417;47.454;18.918;2023-05-29T09:00:37;24.74;53.26
67603;DHT22;54417;47.454;18.918;2023-05-29T09:05:45;24.63;51.49
67603;DHT22;54417;47.454;18.918;2023-05-29T09:10:53;25.19;53.17
67603;DHT22;54417;47.454;18.918;2023-05-29T09:16:04;25.61;49.02
67603;DHT22;54417;47.454;18.918;2023-05-29T09:21:25;25.72;50.60
67603;DHT22;54417;47.454;18.918;2023-05-29T09:26:33;25.96;48.44
67603;DHT22;54417;47.454;18.918;2023-05-29T09:31:46;26.24;48.24
67603;DHT22;54417;47.454;18.918;2023-05-29T09:36:53;26.71;49.19
67603;DHT22;54417;47.454;18.918;2023-05-29T09:42:37;26.89;47.62
67603;DHT22;54417;47.454;18.918;2023-05-29T09:47:47;27.10;47.98
67603;DHT22;54417;47.454;18.918;2023-05-29T09:52:56;27.31;49.08
67603;DHT22;54417;47.454;18.918;2023-05-29T09:58:04;27.40;50.18
67603;DHT22;54417;47.454;18.918;2023-05-29T10:03:16;27.72;47.86
67603;DHT22;54417;47.454;18.918;2023-05-29T10:08:35;28.12;48.54
67603;DHT22;54417;47.454;18.918;2023-05-29T10:13:45;27.82;44.43
67603;DHT22;54417;47.454;18.918;2023-05-29T10:18:55;27.94;48.26
67603;DHT22;54417;47.454;18.918;2023-05-29T10:24:08;27.77;45.28
67603;DHT22;54417;47.454;18.918;2023-05-29T10:29:21;27.14;45.59
67603;DHT22;54417;47.454;18.918;2023-05-29T10:34:37;27.13;47.91
67603;DHT22;54417;47.454;18.918;2023-05-29T10:39:49;27.37;46.94
67603;DHT22;54417;47.454;18.918;2023-05-29T10:44:56;27.20;45.88
67603;DHT22;54417;47.454;18.918;2023-05-29T10:50:05;27.24;46.16
67603;DHT22;54417;47.454;18.918;2023-05-29T11:00:23;28.06;46.15
67603;DHT22;54417;47.454;18.918;2023-05-29T11:05:30;27.80;44.93
67603;DHT22;54417;47.454;18.918;2023-05-29T11:10:56;27.91;45.65
67603;DHT22;54417;47.454;18.918;2023-05-29T11:16:09;28.20;46.50
67603;DHT22;54417;47.454;18.918;2023-05-29T11:26:40;27.75;46.10
67603;DHT22;54417;47.454;18.918;2023-05-29T11:31:55;27.51;47.59
67603;DHT22;54417;47.454;18.918;2023-05-29T11:37:05;27.58;48.06
67603;DHT22;54417;47.454;18.918;2023-05-29T11:42:16;26.88;49.42
67603;DHT22;54417;47.454;18.918;2023-05-29T11:47:23;27.24;48.83
67603;DHT22;54417;47.454;18.918;2023-05-29T11:52:30;27.31;48.67
67603;DHT22;54417;47.454;18.918;2023-05-29T11:57:42;27.65;49.23
67603;DHT22;54417;47.454;18.918;2023-05-29T12:02:51;28.02;49.38
67603;DHT22;54417;47.454;18.918;2023-05-29T12:07:58;27.92;48.23
67603;DHT22;54417;47.454;18.918;2023-05-29T12:13:10;27.85;46.80
67603;DHT22;54417;47.454;18.918;2023-05-29T12:18:18;27.77;45.27
67603;DHT22;54417;47.454;18.918;2023-05-29T12:23:26;27.74;45.15
67603;DHT22;54417;47.454;18.918;2023-05-29T12:28:42;26.67;48.23
67603;DHT22;54417;47.454;18.918;2023-05-29T12:33:50;27.33;46.41
67603;DHT22;54417;47.454;18.918;2023-05-29T12:38:57;27.36;46.24
67603;DHT22;54417;47.454;18.918;2023-05-29T12:44:07;27.11;47.08
67603;DHT22;54417;47.454;18.918;2023-05-29T12:49:15;27.02;47.33
67603;DHT22;54417;47.454;18.918;2023-05-29T12:54:24;27.54;48.21
67603;DHT22;54417;47.454;18.918;2023-05-29T12:59:34;27.67;46.31
67603;DHT22;54417;47.454;18.918;2023-05-29T13:04:46;27.33;44.90
67603;DHT22;54417;47.454;18.918;2023-05-29T13:09:51;27.16;45.83
67603;DHT22;54417;47.454;18.918;2023-05-29T13:15:02;27.29;45.32
67603;DHT22;54417;47.454;18.918;2023-05-29T13:20:11;27.29;43.65
67603;DHT22;54417;47.454;18.918;2023-05-29T13:25:18;27.36;42.69
67603;DHT22;54417;47.454;18.918;2023-05-29T13:30:31;27.91;44.08
67603;DHT22;54417;47.454;18.918;2023-05-29T13:35:38;28.25;42.93
67603;DHT22;54417;47.454;18.918;2023-05-29T13:40:46;28.36;43.30
67603;DHT22;54417;47.454;18.918;2023-05-29T13:45:56;28.50;42.29
67603;DHT22;54417;47.454;18.918;2023-05-29T13:51:03;28.31;43.38
67603;DHT22;54417;47.454;18.918;2023-05-29T13:56:11;28.52;45.14
67603;DHT22;54417;47.454;18.918;2023-05-29T14:01:21;28.67;44.05
67603;DHT22;54417;47.454;18.918;2023-05-29T14:06:28;28.81;44.90
67603;DHT22;54417;47.454;18.918;2023-05-29T14:11:36;28.27;45.44
67603;DHT22;54417;47.454;18.918;2023-05-29T14:21:55;28.29;47.02
67603;DHT22;54417;47.454;18.918;2023-05-29T14:27:04;28.42;47.64
67603;DHT22;54417;47.454;18.918;2023-05-29T14:32:13;28.50;47.23
67603;DHT22;54417;47.454;18.918;2023-05-29T14:37:20;28.39;46.75
67603;DHT22;54417;47.454;18.918;2023-05-29T14:42:55;28.31;48.04
67603;DHT22;54417;47.454;18.918;2023-05-29T14:48:04;28.22;49.55
67603;DHT22;54417;47.454;18.918;2023-05-29T14:53:12;28.35;48.72
67603;DHT22;54417;47.454;18.918;2023-05-29T14:58:19;28.83;47.18
67603;DHT22;54417;47.454;18.918;2023-05-29T15:03:29;29.45;46.08
67603;DHT22;54417;47.454;18.918;2023-05-29T15:13:47;30.08;42.84
67603;DHT22;54417;47.454;18.918;2023-05-29T15:18:57;31.43;39.90
67603;DHT22;54417;47.454;18.918;2023-05-29T15:24:07;30.80;42.10
67603;DHT22;54417;47.454;18.918;2023-05-29T15:29:15;30.29;41.91
67603;DHT22;54417;47.454;18.918;2023-05-29T15:39:33;28.52;44.47
67603;DHT22;54417;47.454;18.918;2023-05-29T15:44:41;28.09;46.21
67603;DHT22;54417;47.454;18.918;2023-05-29T15:49:51;27.59;47.01
67603;DHT22;54417;47.454;18.918;2023-05-29T15:54:58;27.26;47.79
67603;DHT22;54417;47.454;18.918;2023-05-29T16:05:19;26.75;50.57
67603;DHT22;54417;47.454;18.918;2023-05-29T16:10:26;26.48;51.46
67603;DHT22;54417;47.454;18.918;2023-05-29T16:15:33;26.18;52.92
67603;DHT22;54417;47.454;18.918;2023-05-29T16:20:43;25.67;54.10
67603;DHT22;54417;47.454;18.918;2023-05-29T16:25:51;24.92;56.59
67603;DHT22;54417;47.454;18.918;2023-05-29T16:30:58;24.39;57.86
67603;DHT22;54417;47.454;18.918;2023-05-29T16:36:09;24.39;58.02
67603;DHT22;54417;47.454;18.918;2023-05-29T16:41:16;24.36;59.60
67603;DHT22;54417;47.454;18.918;2023-05-29T16:46:23;24.35;58.73
67603;DHT22;54417;47.454;18.918;2023-05-29T16:51:32;24.33;59.55
67603;DHT22;54417;47.454;18.918;2023-05-29T16:56:40;24.16;58.04
67603;DHT22;54417;47.454;18.918;2023-05-29T17:01:47;23.97;60.44
67603;DHT22;54417;47.454;18.918;2023-05-29T17:06:57;23.79;61.89
67603;DHT22;54417;47.454;18.918;2023-05-29T17:12:05;23.49;65.01
67603;DHT22;54417;47.454;18.918;2023-05-29T17:17:11;23.26;64.34
67603;DHT22;54417;47.454;18.918;2023-05-29T17:22:25;23.00;65.54
67603;DHT22;54417;47.454;18.918;2023-05-29T17:27:32;22.88;65.72
67603;DHT22;54417;47.454;18.918;2023-05-29T17:32:39;22.69;67.05
67603;DHT22;54417;47.454;18.918;2023-05-29T17:37:50;22.48;68.42
67603;DHT22;54417;47.454;18.918;2023-05-29T17:42:58;22.25;68.14
67603;DHT22;54417;47.454;18.918;2023-05-29T17:48:08;22.11;69.34
67603;DHT22;54417;47.454;18.918;2023-05-29T17:53:17;21.98;70.04
67603;DHT22;54417;47.454;18.918;2023-05-29T17:58:25;22.00;71.14
67603;DHT22;54417;47.454;18.918;2023-05-29T18:03:33;21.86;71.46
67603;DHT22;54417;47.454;18.918;2023-05-29T18:09:08;21.48;71.31
67603;DHT22;54417;47.454;18.918;2023-05-29T18:14:15;21.37;71.87
67603;DHT22;54417;47.454;18.918;2023-05-29T18:19:22;21.31;74.06
67603;DHT22;54417;47.454;18.918;2023-05-29T18:24:32;21.14;74.15
67603;DHT22;54417;47.454;18.918;2023-05-29T18:29:40;21.01;75.04
67603;DHT22;54417;47.454;18.918;2023-05-29T18:34:47;20.79;76.26
67603;DHT22;54417;47.454;18.918;2023-05-29T18:39:58;20.52;76.00
67603;DHT22;54417;47.454;18.918;2023-05-29T18:45:06;20.23;74.31
67603;DHT22;54417;47.454;18.918;2023-05-29T18:50:13;20.23;73.74
67603;DHT22;54417;47.454;18.918;2023-05-29T18:55:24;20.21;74.40
67603;DHT22;54417;47.454;18.918;2023-05-29T19:00:35;20.02;76.93
67603;DHT22;54417;47.454;18.918;2023-05-29T19:05:43;19.84;75.98
67603;DHT22;54417;47.454;18.918;2023-05-29T19:10:53;19.73;77.26
67603;DHT22;54417;47.454;18.918;2023-05-29T19:16:00;19.56;77.49
67603;DHT22;54417;47.454;18.918;2023-05-29T19:21:08;19.40;78.18
67603;DHT22;54417;47.454;18.918;2023-05-29T19:26:26;19.23;79.06
67603;DHT22;54417;47.454;18.918;2023-05-29T19:31:33;19.10;78.91
67603;DHT22;54417;47.454;18.918;2023-05-29T19:36:40;19.02;79.85
67603;DHT22;54417;47.454;18.918;2023-05-29T19:41:50;18.88;79.68
67603;DHT22;54417;47.454;18.918;2023-05-29T19:52:05;18.79;80.85
67603;DHT22;54417;47.454;18.918;2023-05-29T19:57:18;18.55;81.03
67603;DHT22;54417;47.454;18.918;2023-05-29T20:02:25;18.40;81.81
67603;DHT22;54417;47.454;18.918;2023-05-29T20:07:37;18.23;82.37
67603;DHT22;54417;47.454;18.918;2023-05-29T20:17:55;18.13;83.11
67603;DHT22;54417;47.454;18.918;2023-05-29T20:23:01;18.09;82.87
67603;DHT22;54417;47.454;18.918;2023-05-29T20:28:11;18.11;82.39
67603;DHT22;54417;47.454;18.918;2023-05-29T20:33:18;18.03;81.97
67603;DHT22;54417;47.454;18.918;2023-05-29T20:38:26;18.07;82.26
67603;DHT22;54417;47.454;18.918;2023-05-29T20:43:54;18.03;82.75
67603;DHT22;54417;47.454;18.918;2023-05-29T20:49:03;17.87;82.80
67603;DHT22;54417;47.454;18.918;2023-05-29T20:54:11;17.81;83.14
67603;DHT22;54417;47.454;18.918;2023-05-29T20:59:21;17.65;83.14
67603;DHT22;54417;47.454;18.918;2023-05-29T21:04:28;17.48;83.45
67603;DHT22;54417;47.454;18.918;2023-05-29T21:09:57;17.30;83.51
67603;DHT22;54417;47.454;18.918;2023-05-29T21:15:08;17.02;84.62
67603;DHT22;54417;47.454;18.918;2023-05-29T21:20:17;16.81;84.97
67603;DHT22;54417;47.454;18.918;2023-05-29T21:25:25;16.62;85.67
67603;DHT22;54417;47.454;18.918;2023-05-29T21:30:35;16.52;85.76
67603;DHT22;54417;47.454;18.918;2023-05-29T21:35:42;16.44;86.09
67603;DHT22;54417;47.454;18.918;2023-05-29T21:40:49;16.32;86.41
67603;DHT22;54417;47.454;18.918;2023-05-29T21:45:59;16.15;86.67
67603;DHT22;54417;47.454;18.918;2023-05-29T21:51:06;16.11;86.69
67603;DHT22;54417;47.454;18.918;2023-05-29T21:56:13;15.84;86.83
67603;DHT22;54417;47.454;18.918;2023-05-29T22:01:30;15.77;87.17
67603;DHT22;54417;47.454;18.918;2023-05-29T22:06:37;15.53;88.17
67603;DHT22;54417;47.454;18.918;2023-05-29T22:11:44;15.42;88.27
67603;DHT22;54417;47.454;18.918;2023-05-29T22:16:55;15.35;88.24
67603;DHT22;54417;47.454;18.918;2023-05-29T22:27:12;15.08;88.60
67603;DHT22;54417;47.454;18.918;2023-05-29T22:32:23;15.02;88.67
67603;DHT22;54417;47.454;18.918;2023-05-29T22:37:30;15.01;88.69
67603;DHT22;54417;47.454;18.918;2023-05-29T22:42:37;14.93;88.73
67603;DHT22;54417;47.454;18.918;2023-05-29T22:53:06;14.82;88.45
67603;DHT22;54417;47.454;18.918;2023-05-29T22:58:13;14.72;89.18
67603;DHT22;54417;47.454;18.918;2023-05-29T23:03:20;14.65;89.23
67603;DHT22;54417;47.454;18.918;2023-05-29T23:08:32;14.64;88.90
67603;DHT22;54417;47.454;18.918;2023-05-29T23:13:39;14.48;89.69
67603;DHT22;54417;47.454;18.918;2023-05-29T23:18:44;14.38;89.94
67603;DHT22;54417;47.454;18.918;2023-05-29T23:24:03;14.33;90.03
67603;DHT22;54417;47.454;18.918;2023-05-29T23:29:10;14.22;91.03
67603;DHT22;54417;47.454;18.918;2023-05-29T23:34:18;14.19;91.27
67603;DHT22;54417;47.454;18.918;2023-05-29T23:39:27;14.10;91.32
67603;DHT22;54417;47.454;18.918;2023-05-29T23:44:32;14.09;91.46
67603;DHT22;54417;47.454;18.918;2023-05-29T23:49:39;14.03;91.14
67603;DHT22;54417;47.454;18.918;2023-05-29T23:54:50;14.01;90.59
67603;DHT22;54417;47.454;18.918;2023-05-29T23:59:57;13.87;90.82
